Detall de PIREP

Printer-friendly versionPDF version

[2011/05/03 08:51:00]
Flight IATA:CT1005
Pilot Number:011
Company ICAO:CAT
Aircraft Type:F28/A
PAX:85
Departing Airport: LEBL
Destination Airport: LEMG
Alternate Airport:GMTT
Online: VATSIM
Route:LOTOS UM985 MGA
Flight Level:F310
No Slew and time accel
No pause
Crash detect
Detect pilot in Cockpit between each 30 and 45 minutes
08:51 Zero fuel Weight: 59657 Lbs, Fuel Weight: 10308 Lbs
08:51 VATSIM:LEBL 030830Z 23006KT 190V260 CAVOK 19/12 Q1008 NOSIG
08:51 VATSIM:LEMG 030830Z 27003KT 150V310 9999 FEW045 20/14 Q1014 NOSIG
08:56 Parking Brakes off
09:06 Take-off
09:06 Take off Weight: 69430 Lbs
09:06 Wind: 233º @ 006 Knots Heading: 244º
09:06 POS N41º 18´ 00´´ E002º 05´ 14´´
09:06 Gear Up: 153 Knots
09:06 Flaps:2 at 153 Knots
09:07 Flaps:1 at 207 Knots
09:07 Flaps:0 at 214 Knots
09:21 Wind:258º@010 Knots Heading: 228º Ground Speed: 399 Knots Altitude 26617 ft
09:23 TOC
09:23 Fuel Weight: 7571 Lb
09:36 Wind:253º@028 Knots Heading: 234º Ground Speed: 430 Knots Altitude 30912 ft
09:51 Wind:260º@022 Knots Heading: 227º Ground Speed: 433 Knots Altitude 30990 ft
09:51 TOD
09:51 Fuel Weight: 5508 Lb
10:06 Wind:280º@004 Knots Heading: 180º Ground Speed: 282 Knots Altitude 7883 ft
10:15 Flaps:1 at 214 Knots
10:16 Flaps:2 at 199 Knots
10:19 Flaps:3 at 180 Knots
10:19 Gear Down: 179 Knots
10:20 Flaps:4 at 164 Knots
10:21 Wind:314º@008 Knots Heading: 311º Ground Speed: 158 Knots Altitude 2168 ft
10:21 Flaps:5 at 159 Knots
10:25 TouchDown:Rate -346 ft/min Speed: 113 Knots
10:25 VATSIM:LEMG 031000Z 31008KT 270V340 9999 FEW050 22/14 Q1014 NOSIG
10:25 Land
10:25 Wind:314º@008 Knots
10:25 Heading: 314º
10:25 Flight Duration: 01:19
10:25 Landing Weight: 63423 Lbs
10:25 POS N36º 40´ 31´´ W004º 30´ 00´´
10:28 Parking brakes on
10:28 Block to Block Duration: 01:32
10:28 Final Fuel: 3635 Lbls
10:28 Spent Fuel: 6673 Lbls
10:28 Flight Length: 192 NM
10:28 TOD Land Length: 65 NM

Exportar CSV

Powered by Drupal - Modified by Danger4k